sensor_id;sensor_type;location;lat;lon;timestamp;P1;durP1;ratioP1;P2;durP2;ratioP2
3407;SDS011;1717;50.240;8.406;2024-01-07T00:00:08;5.53;;;4.00;;
3407;SDS011;1717;50.240;8.406;2024-01-07T00:02:37;6.80;;;4.60;;
3407;SDS011;1717;50.240;8.406;2024-01-07T00:05:04;5.20;;;4.40;;
3407;SDS011;1717;50.240;8.406;2024-01-07T00:07:31;4.70;;;4.07;;
3407;SDS011;1717;50.240;8.406;2024-01-07T00:09:58;6.57;;;4.77;;
3407;SDS011;1717;50.240;8.406;2024-01-07T00:12:25;6.30;;;4.83;;
3407;SDS011;1717;50.240;8.406;2024-01-07T00:14:52;3.87;;;3.57;;
3407;SDS011;1717;50.240;8.406;2024-01-07T00:17:19;7.67;;;4.53;;
3407;SDS011;1717;50.240;8.406;2024-01-07T00:19:47;6.07;;;4.40;;
3407;SDS011;1717;50.240;8.406;2024-01-07T00:22:14;6.30;;;4.23;;
3407;SDS011;1717;50.240;8.406;2024-01-07T00:24:41;4.90;;;4.10;;
3407;SDS011;1717;50.240;8.406;2024-01-07T00:27:07;6.27;;;4.43;;
3407;SDS011;1717;50.240;8.406;2024-01-07T00:29:34;5.27;;;4.10;;
3407;SDS011;1717;50.240;8.406;2024-01-07T00:32:02;6.13;;;4.20;;
3407;SDS011;1717;50.240;8.406;2024-01-07T00:34:29;4.60;;;3.60;;
3407;SDS011;1717;50.240;8.406;2024-01-07T00:36:57;4.53;;;3.60;;
3407;SDS011;1717;50.240;8.406;2024-01-07T00:39:24;4.70;;;3.93;;
3407;SDS011;1717;50.240;8.406;2024-01-07T00:41:51;4.97;;;4.37;;
3407;SDS011;1717;50.240;8.406;2024-01-07T00:44:18;3.97;;;3.20;;
3407;SDS011;1717;50.240;8.406;2024-01-07T00:46:44;5.73;;;3.87;;
3407;SDS011;1717;50.240;8.406;2024-01-07T00:49:11;4.53;;;4.13;;
3407;SDS011;1717;50.240;8.406;2024-01-07T00:51:38;6.10;;;4.20;;
3407;SDS011;1717;50.240;8.406;2024-01-07T00:54:06;4.73;;;3.83;;
3407;SDS011;1717;50.240;8.406;2024-01-07T00:56:33;4.67;;;4.13;;
3407;SDS011;1717;50.240;8.406;2024-01-07T00:59:00;4.00;;;3.40;;
3407;SDS011;1717;50.240;8.406;2024-01-07T01:01:27;5.20;;;4.67;;
3407;SDS011;1717;50.240;8.406;2024-01-07T01:03:54;3.73;;;3.40;;
3407;SDS011;1717;50.240;8.406;2024-01-07T01:06:23;3.00;;;2.70;;
3407;SDS011;1717;50.240;8.406;2024-01-07T01:08:49;5.80;;;2.87;;
3407;SDS011;1717;50.240;8.406;2024-01-07T01:11:17;3.93;;;3.53;;
3407;SDS011;1717;50.240;8.406;2024-01-07T01:13:44;3.10;;;2.80;;
3407;SDS011;1717;50.240;8.406;2024-01-07T01:16:11;3.30;;;3.00;;
3407;SDS011;1717;50.240;8.406;2024-01-07T01:18:38;3.00;;;2.70;;
3407;SDS011;1717;50.240;8.406;2024-01-07T01:21:05;3.63;;;2.43;;
3407;SDS011;1717;50.240;8.406;2024-01-07T01:23:33;3.60;;;2.73;;
3407;SDS011;1717;50.240;8.406;2024-01-07T01:25:59;4.13;;;2.83;;
3407;SDS011;1717;50.240;8.406;2024-01-07T01:28:28;2.23;;;2.03;;
3407;SDS011;1717;50.240;8.406;2024-01-07T01:30:55;2.30;;;1.97;;
3407;SDS011;1717;50.240;8.406;2024-01-07T01:33:22;2.87;;;2.33;;
3407;SDS011;1717;50.240;8.406;2024-01-07T01:35:49;2.33;;;2.00;;
3407;SDS011;1717;50.240;8.406;2024-01-07T01:38:16;3.10;;;2.00;;
3407;SDS011;1717;50.240;8.406;2024-01-07T01:40:43;2.60;;;2.40;;
3407;SDS011;1717;50.240;8.406;2024-01-07T01:43:10;2.07;;;1.73;;
3407;SDS011;1717;50.240;8.406;2024-01-07T01:45:38;2.23;;;2.00;;
3407;SDS011;1717;50.240;8.406;2024-01-07T01:48:05;1.97;;;1.87;;
3407;SDS011;1717;50.240;8.406;2024-01-07T01:50:31;2.00;;;1.80;;
3407;SDS011;1717;50.240;8.406;2024-01-07T01:52:58;2.03;;;1.63;;
3407;SDS011;1717;50.240;8.406;2024-01-07T01:55:25;2.23;;;1.70;;
3407;SDS011;1717;50.240;8.406;2024-01-07T01:57:52;1.90;;;1.80;;
3407;SDS011;1717;50.240;8.406;2024-01-07T02:00:20;2.43;;;2.23;;
3407;SDS011;1717;50.240;8.406;2024-01-07T02:02:48;2.60;;;2.40;;
3407;SDS011;1717;50.240;8.406;2024-01-07T02:05:15;2.73;;;2.27;;
3407;SDS011;1717;50.240;8.406;2024-01-07T02:07:42;2.23;;;2.00;;
3407;SDS011;1717;50.240;8.406;2024-01-07T02:10:09;2.63;;;2.17;;
3407;SDS011;1717;50.240;8.406;2024-01-07T02:12:37;2.00;;;1.90;;
3407;SDS011;1717;50.240;8.406;2024-01-07T02:15:04;2.10;;;1.87;;
3407;SDS011;1717;50.240;8.406;2024-01-07T02:17:32;3.03;;;2.40;;
3407;SDS011;1717;50.240;8.406;2024-01-07T02:20:00;2.53;;;2.20;;
3407;SDS011;1717;50.240;8.406;2024-01-07T02:22:26;2.47;;;2.27;;
3407;SDS011;1717;50.240;8.406;2024-01-07T02:24:54;2.40;;;2.20;;
3407;SDS011;1717;50.240;8.406;2024-01-07T02:27:21;2.27;;;2.07;;
3407;SDS011;1717;50.240;8.406;2024-01-07T02:29:47;2.37;;;2.17;;
3407;SDS011;1717;50.240;8.406;2024-01-07T02:32:14;2.70;;;2.07;;
3407;SDS011;1717;50.240;8.406;2024-01-07T02:34:41;2.27;;;1.83;;
3407;SDS011;1717;50.240;8.406;2024-01-07T02:37:08;3.00;;;2.13;;
3407;SDS011;1717;50.240;8.406;2024-01-07T02:39:35;2.30;;;2.00;;
3407;SDS011;1717;50.240;8.406;2024-01-07T02:42:03;2.20;;;2.00;;
3407;SDS011;1717;50.240;8.406;2024-01-07T02:44:30;1.97;;;1.77;;
3407;SDS011;1717;50.240;8.406;2024-01-07T02:46:57;2.23;;;2.07;;
3407;SDS011;1717;50.240;8.406;2024-01-07T02:49:24;2.20;;;2.10;;
3407;SDS011;1717;50.240;8.406;2024-01-07T02:51:51;2.50;;;2.30;;
3407;SDS011;1717;50.240;8.406;2024-01-07T02:54:17;2.57;;;2.23;;
3407;SDS011;1717;50.240;8.406;2024-01-07T02:56:44;2.73;;;2.53;;
3407;SDS011;1717;50.240;8.406;2024-01-07T02:59:12;2.37;;;2.17;;
3407;SDS011;1717;50.240;8.406;2024-01-07T03:01:39;3.47;;;2.50;;
3407;SDS011;1717;50.240;8.406;2024-01-07T03:04:07;2.20;;;2.00;;
3407;SDS011;1717;50.240;8.406;2024-01-07T03:06:36;3.73;;;2.40;;
3407;SDS011;1717;50.240;8.406;2024-01-07T03:09:03;5.00;;;2.47;;
3407;SDS011;1717;50.240;8.406;2024-01-07T03:11:29;2.13;;;1.93;;
3407;SDS011;1717;50.240;8.406;2024-01-07T03:13:56;3.07;;;2.57;;
3407;SDS011;1717;50.240;8.406;2024-01-07T03:16:25;3.30;;;2.67;;
3407;SDS011;1717;50.240;8.406;2024-01-07T03:18:52;3.00;;;2.57;;
3407;SDS011;1717;50.240;8.406;2024-01-07T03:21:20;2.90;;;2.13;;
3407;SDS011;1717;50.240;8.406;2024-01-07T03:23:48;3.13;;;2.67;;
3407;SDS011;1717;50.240;8.406;2024-01-07T03:26:17;3.03;;;2.63;;
3407;SDS011;1717;50.240;8.406;2024-01-07T03:28:44;3.50;;;2.83;;
3407;SDS011;1717;50.240;8.406;2024-01-07T03:31:12;2.73;;;2.53;;
3407;SDS011;1717;50.240;8.406;2024-01-07T03:33:41;3.40;;;2.40;;
3407;SDS011;1717;50.240;8.406;2024-01-07T03:36:09;3.40;;;2.60;;
3407;SDS011;1717;50.240;8.406;2024-01-07T03:38:36;2.60;;;2.40;;
3407;SDS011;1717;50.240;8.406;2024-01-07T03:41:04;2.37;;;2.17;;
3407;SDS011;1717;50.240;8.406;2024-01-07T03:43:31;3.10;;;2.40;;
3407;SDS011;1717;50.240;8.406;2024-01-07T03:45:58;2.83;;;2.63;;
3407;SDS011;1717;50.240;8.406;2024-01-07T03:48:25;2.43;;;2.17;;
3407;SDS011;1717;50.240;8.406;2024-01-07T03:50:53;3.23;;;2.60;;
3407;SDS011;1717;50.240;8.406;2024-01-07T03:53:20;3.37;;;1.70;;
3407;SDS011;1717;50.240;8.406;2024-01-07T03:55:47;3.20;;;2.60;;
3407;SDS011;1717;50.240;8.406;2024-01-07T03:58:14;3.97;;;3.00;;
3407;SDS011;1717;50.240;8.406;2024-01-07T04:00:40;3.33;;;2.70;;
3407;SDS011;1717;50.240;8.406;2024-01-07T04:03:07;2.50;;;2.20;;
3407;SDS011;1717;50.240;8.406;2024-01-07T04:05:34;5.03;;;3.20;;
3407;SDS011;1717;50.240;8.406;2024-01-07T04:08:03;2.90;;;2.60;;
3407;SDS011;1717;50.240;8.406;2024-01-07T04:10:30;8.37;;;2.63;;
3407;SDS011;1717;50.240;8.406;2024-01-07T04:12:57;2.37;;;1.97;;
3407;SDS011;1717;50.240;8.406;2024-01-07T04:15:24;2.70;;;2.27;;
3407;SDS011;1717;50.240;8.406;2024-01-07T04:17:50;2.90;;;2.00;;
3407;SDS011;1717;50.240;8.406;2024-01-07T04:20:17;2.43;;;1.97;;
3407;SDS011;1717;50.240;8.406;2024-01-07T04:22:44;1.60;;;1.50;;
3407;SDS011;1717;50.240;8.406;2024-01-07T04:25:12;1.93;;;1.57;;
3407;SDS011;1717;50.240;8.406;2024-01-07T04:27:39;1.47;;;1.37;;
3407;SDS011;1717;50.240;8.406;2024-01-07T04:30:06;1.97;;;1.60;;
3407;SDS011;1717;50.240;8.406;2024-01-07T04:32:34;2.97;;;1.73;;
3407;SDS011;1717;50.240;8.406;2024-01-07T04:35:01;2.60;;;1.63;;
3407;SDS011;1717;50.240;8.406;2024-01-07T04:37:27;2.03;;;1.67;;
3407;SDS011;1717;50.240;8.406;2024-01-07T04:39:54;2.13;;;1.53;;
3407;SDS011;1717;50.240;8.406;2024-01-07T04:42:23;1.50;;;1.40;;
3407;SDS011;1717;50.240;8.406;2024-01-07T04:44:49;2.20;;;1.40;;
3407;SDS011;1717;50.240;8.406;2024-01-07T04:47:23;1.70;;;1.43;;
3407;SDS011;1717;50.240;8.406;2024-01-07T04:49:51;2.50;;;1.67;;
3407;SDS011;1717;50.240;8.406;2024-01-07T04:52:18;2.33;;;1.53;;
3407;SDS011;1717;50.240;8.406;2024-01-07T04:54:45;2.10;;;1.70;;
3407;SDS011;1717;50.240;8.406;2024-01-07T04:57:12;1.70;;;1.60;;
3407;SDS011;1717;50.240;8.406;2024-01-07T04:59:40;2.63;;;1.60;;
3407;SDS011;1717;50.240;8.406;2024-01-07T05:02:07;2.57;;;1.67;;
3407;SDS011;1717;50.240;8.406;2024-01-07T05:04:34;1.60;;;1.50;;
3407;SDS011;1717;50.240;8.406;2024-01-07T05:07:01;2.27;;;1.60;;
3407;SDS011;1717;50.240;8.406;2024-01-07T05:09:29;1.93;;;1.60;;
3407;SDS011;1717;50.240;8.406;2024-01-07T05:11:55;3.20;;;2.43;;
3407;SDS011;1717;50.240;8.406;2024-01-07T05:14:22;3.33;;;2.70;;
3407;SDS011;1717;50.240;8.406;2024-01-07T05:16:51;2.60;;;2.20;;
3407;SDS011;1717;50.240;8.406;2024-01-07T05:19:19;4.80;;;2.50;;
3407;SDS011;1717;50.240;8.406;2024-01-07T05:21:46;3.53;;;2.63;;
3407;SDS011;1717;50.240;8.406;2024-01-07T05:24:12;7.20;;;3.10;;
3407;SDS011;1717;50.240;8.406;2024-01-07T05:26:39;3.57;;;2.60;;
3407;SDS011;1717;50.240;8.406;2024-01-07T05:29:07;6.93;;;3.67;;
3407;SDS011;1717;50.240;8.406;2024-01-07T05:31:34;5.40;;;3.40;;
3407;SDS011;1717;50.240;8.406;2024-01-07T05:34:02;5.60;;;4.20;;
3407;SDS011;1717;50.240;8.406;2024-01-07T05:36:29;5.53;;;4.20;;
3407;SDS011;1717;50.240;8.406;2024-01-07T05:38:56;5.97;;;4.90;;
3407;SDS011;1717;50.240;8.406;2024-01-07T05:41:23;4.97;;;4.33;;
3407;SDS011;1717;50.240;8.406;2024-01-07T05:43:50;7.87;;;5.40;;
3407;SDS011;1717;50.240;8.406;2024-01-07T05:46:17;8.70;;;6.03;;
3407;SDS011;1717;50.240;8.406;2024-01-07T05:48:44;7.13;;;5.37;;
3407;SDS011;1717;50.240;8.406;2024-01-07T05:51:13;7.90;;;5.67;;
3407;SDS011;1717;50.240;8.406;2024-01-07T05:53:41;9.47;;;5.97;;
3407;SDS011;1717;50.240;8.406;2024-01-07T05:56:08;9.73;;;6.17;;
3407;SDS011;1717;50.240;8.406;2024-01-07T05:58:35;7.37;;;5.77;;
3407;SDS011;1717;50.240;8.406;2024-01-07T06:01:02;8.30;;;6.10;;
3407;SDS011;1717;50.240;8.406;2024-01-07T06:03:29;8.67;;;7.13;;
3407;SDS011;1717;50.240;8.406;2024-01-07T06:05:55;8.47;;;6.90;;
3407;SDS011;1717;50.240;8.406;2024-01-07T06:08:25;9.53;;;6.90;;
3407;SDS011;1717;50.240;8.406;2024-01-07T06:10:51;8.23;;;6.07;;
3407;SDS011;1717;50.240;8.406;2024-01-07T06:13:18;9.13;;;6.80;;
3407;SDS011;1717;50.240;8.406;2024-01-07T06:15:45;8.60;;;6.43;;
3407;SDS011;1717;50.240;8.406;2024-01-07T06:18:12;8.67;;;7.10;;
3407;SDS011;1717;50.240;8.406;2024-01-07T06:20:39;7.20;;;6.30;;
3407;SDS011;1717;50.240;8.406;2024-01-07T06:23:05;6.90;;;6.20;;
3407;SDS011;1717;50.240;8.406;2024-01-07T06:25:34;8.83;;;7.47;;
3407;SDS011;1717;50.240;8.406;2024-01-07T06:28:01;11.83;;;7.97;;
3407;SDS011;1717;50.240;8.406;2024-01-07T06:30:28;11.37;;;6.63;;
3407;SDS011;1717;50.240;8.406;2024-01-07T06:32:55;8.70;;;6.20;;
3407;SDS011;1717;50.240;8.406;2024-01-07T06:35:22;8.40;;;5.80;;
3407;SDS011;1717;50.240;8.406;2024-01-07T06:37:48;9.00;;;7.07;;
3407;SDS011;1717;50.240;8.406;2024-01-07T06:40:15;9.40;;;6.40;;
3407;SDS011;1717;50.240;8.406;2024-01-07T06:42:43;8.63;;;7.10;;
3407;SDS011;1717;50.240;8.406;2024-01-07T06:45:10;7.93;;;6.87;;
3407;SDS011;1717;50.240;8.406;2024-01-07T06:47:37;7.53;;;5.90;;
3407;SDS011;1717;50.240;8.406;2024-01-07T06:50:04;8.30;;;6.80;;
3407;SDS011;1717;50.240;8.406;2024-01-07T06:52:32;6.13;;;5.53;;
3407;SDS011;1717;50.240;8.406;2024-01-07T06:54:58;6.07;;;5.47;;
3407;SDS011;1717;50.240;8.406;2024-01-07T06:57:26;9.13;;;5.90;;
3407;SDS011;1717;50.240;8.406;2024-01-07T06:59:54;6.83;;;5.53;;
3407;SDS011;1717;50.240;8.406;2024-01-07T07:02:21;6.90;;;5.73;;
3407;SDS011;1717;50.240;8.406;2024-01-07T07:04:47;5.93;;;5.00;;
3407;SDS011;1717;50.240;8.406;2024-01-07T07:07:16;6.07;;;5.47;;
3407;SDS011;1717;50.240;8.406;2024-01-07T07:09:43;5.93;;;5.30;;
3407;SDS011;1717;50.240;8.406;2024-01-07T07:12:11;6.50;;;5.40;;
3407;SDS011;1717;50.240;8.406;2024-01-07T07:14:38;7.80;;;4.50;;
3407;SDS011;1717;50.240;8.406;2024-01-07T07:17:07;6.50;;;5.90;;
3407;SDS011;1717;50.240;8.406;2024-01-07T07:19:34;6.67;;;6.10;;
3407;SDS011;1717;50.240;8.406;2024-01-07T07:22:00;9.00;;;6.17;;
3407;SDS011;1717;50.240;8.406;2024-01-07T07:24:27;9.27;;;6.00;;
3407;SDS011;1717;50.240;8.406;2024-01-07T07:26:54;8.03;;;5.70;;
3407;SDS011;1717;50.240;8.406;2024-01-07T07:29:21;7.27;;;5.47;;
3407;SDS011;1717;50.240;8.406;2024-01-07T07:31:47;7.93;;;5.90;;
3407;SDS011;1717;50.240;8.406;2024-01-07T07:34:16;6.23;;;5.13;;
3407;SDS011;1717;50.240;8.406;2024-01-07T07:36:42;6.03;;;5.43;;
3407;SDS011;1717;50.240;8.406;2024-01-07T07:39:10;8.17;;;6.50;;
3407;SDS011;1717;50.240;8.406;2024-01-07T07:41:38;8.40;;;6.67;;
3407;SDS011;1717;50.240;8.406;2024-01-07T07:44:05;7.30;;;6.00;;
3407;SDS011;1717;50.240;8.406;2024-01-07T07:46:32;8.13;;;6.27;;
3407;SDS011;1717;50.240;8.406;2024-01-07T07:48:59;10.60;;;6.67;;
3407;SDS011;1717;50.240;8.406;2024-01-07T07:51:28;8.90;;;6.30;;
3407;SDS011;1717;50.240;8.406;2024-01-07T07:53:55;9.40;;;6.57;;
3407;SDS011;1717;50.240;8.406;2024-01-07T07:56:22;7.37;;;5.57;;
3407;SDS011;1717;50.240;8.406;2024-01-07T07:58:49;6.20;;;5.23;;
3407;SDS011;1717;50.240;8.406;2024-01-07T08:01:16;6.53;;;5.83;;
3407;SDS011;1717;50.240;8.406;2024-01-07T08:03:44;7.80;;;5.10;;
3407;SDS011;1717;50.240;8.406;2024-01-07T08:06:11;6.87;;;4.83;;
3407;SDS011;1717;50.240;8.406;2024-01-07T08:08:39;8.60;;;5.80;;
3407;SDS011;1717;50.240;8.406;2024-01-07T08:11:06;8.73;;;6.03;;
3407;SDS011;1717;50.240;8.406;2024-01-07T08:13:34;7.43;;;5.33;;
3407;SDS011;1717;50.240;8.406;2024-01-07T08:16:02;7.13;;;6.00;;
3407;SDS011;1717;50.240;8.406;2024-01-07T08:18:30;9.17;;;7.03;;
3407;SDS011;1717;50.240;8.406;2024-01-07T08:20:57;9.13;;;6.23;;
3407;SDS011;1717;50.240;8.406;2024-01-07T08:23:24;9.00;;;7.57;;
3407;SDS011;1717;50.240;8.406;2024-01-07T08:25:52;10.93;;;7.83;;
3407;SDS011;1717;50.240;8.406;2024-01-07T08:28:19;9.90;;;7.10;;
3407;SDS011;1717;50.240;8.406;2024-01-07T08:30:46;8.70;;;6.67;;
3407;SDS011;1717;50.240;8.406;2024-01-07T08:33:14;13.00;;;7.80;;
3407;SDS011;1717;50.240;8.406;2024-01-07T08:35:41;11.43;;;7.80;;
3407;SDS011;1717;50.240;8.406;2024-01-07T08:38:08;11.70;;;7.73;;
3407;SDS011;1717;50.240;8.406;2024-01-07T08:40:35;12.73;;;8.03;;
3407;SDS011;1717;50.240;8.406;2024-01-07T08:43:03;14.77;;;8.87;;
3407;SDS011;1717;50.240;8.406;2024-01-07T08:45:30;11.83;;;8.53;;
3407;SDS011;1717;50.240;8.406;2024-01-07T08:47:57;13.33;;;9.30;;
3407;SDS011;1717;50.240;8.406;2024-01-07T08:50:24;17.27;;;9.73;;
3407;SDS011;1717;50.240;8.406;2024-01-07T08:52:50;13.13;;;8.93;;
3407;SDS011;1717;50.240;8.406;2024-01-07T08:55:17;13.00;;;7.83;;
3407;SDS011;1717;50.240;8.406;2024-01-07T08:57:44;14.60;;;9.00;;
3407;SDS011;1717;50.240;8.406;2024-01-07T09:00:15;15.10;;;8.97;;
3407;SDS011;1717;50.240;8.406;2024-01-07T09:02:43;10.67;;;7.83;;
3407;SDS011;1717;50.240;8.406;2024-01-07T09:05:10;12.00;;;7.80;;
3407;SDS011;1717;50.240;8.406;2024-01-07T09:07:37;13.90;;;8.80;;
3407;SDS011;1717;50.240;8.406;2024-01-07T09:10:04;12.40;;;7.80;;
3407;SDS011;1717;50.240;8.406;2024-01-07T09:12:35;15.77;;;9.87;;
3407;SDS011;1717;50.240;8.406;2024-01-07T09:15:02;11.23;;;7.57;;
3407;SDS011;1717;50.240;8.406;2024-01-07T09:17:34;12.00;;;7.30;;
3407;SDS011;1717;50.240;8.406;2024-01-07T09:20:01;11.80;;;9.23;;
3407;SDS011;1717;50.240;8.406;2024-01-07T09:22:29;13.90;;;9.90;;
3407;SDS011;1717;50.240;8.406;2024-01-07T09:24:56;15.50;;;9.63;;
3407;SDS011;1717;50.240;8.406;2024-01-07T09:27:23;14.00;;;9.07;;
3407;SDS011;1717;50.240;8.406;2024-01-07T09:29:50;13.40;;;9.70;;
3407;SDS011;1717;50.240;8.406;2024-01-07T09:32:17;11.80;;;9.53;;
3407;SDS011;1717;50.240;8.406;2024-01-07T09:34:46;12.00;;;8.67;;
3407;SDS011;1717;50.240;8.406;2024-01-07T09:37:13;13.70;;;9.73;;
3407;SDS011;1717;50.240;8.406;2024-01-07T09:39:39;12.90;;;8.97;;
3407;SDS011;1717;50.240;8.406;2024-01-07T09:42:07;16.27;;;9.45;;
3407;SDS011;1717;50.240;8.406;2024-01-07T09:44:39;14.25;;;8.98;;
3407;SDS011;1717;50.240;8.406;2024-01-07T09:47:06;16.35;;;11.75;;
3407;SDS011;1717;50.240;8.406;2024-01-07T09:49:37;17.55;;;11.15;;
3407;SDS011;1717;50.240;8.406;2024-01-07T09:52:05;13.73;;;9.65;;
3407;SDS011;1717;50.240;8.406;2024-01-07T09:54:34;13.30;;;10.15;;
3407;SDS011;1717;50.240;8.406;2024-01-07T09:57:03;13.23;;;10.73;;
3407;SDS011;1717;50.240;8.406;2024-01-07T09:59:31;14.75;;;11.00;;
3407;SDS011;1717;50.240;8.406;2024-01-07T10:01:59;12.32;;;9.75;;
3407;SDS011;1717;50.240;8.406;2024-01-07T10:04:26;13.50;;;10.82;;
3407;SDS011;1717;50.240;8.406;2024-01-07T10:06:53;12.10;;;9.40;;
3407;SDS011;1717;50.240;8.406;2024-01-07T10:09:23;10.85;;;8.55;;
3407;SDS011;1717;50.240;8.406;2024-01-07T10:11:51;13.15;;;9.32;;
3407;SDS011;1717;50.240;8.406;2024-01-07T10:14:18;11.50;;;9.40;;
3407;SDS011;1717;50.240;8.406;2024-01-07T10:16:47;10.73;;;8.40;;
3407;SDS011;1717;50.240;8.406;2024-01-07T10:19:17;9.95;;;7.85;;
3407;SDS011;1717;50.240;8.406;2024-01-07T10:21:45;10.15;;;8.93;;
3407;SDS011;1717;50.240;8.406;2024-01-07T10:24:13;10.80;;;8.55;;
3407;SDS011;1717;50.240;8.406;2024-01-07T10:26:41;12.18;;;9.90;;
3407;SDS011;1717;50.240;8.406;2024-01-07T10:29:09;14.25;;;10.55;;
3407;SDS011;1717;50.240;8.406;2024-01-07T10:31:37;14.98;;;9.55;;
3407;SDS011;1717;50.240;8.406;2024-01-07T10:34:06;13.52;;;10.80;;
3407;SDS011;1717;50.240;8.406;2024-01-07T10:36:34;12.80;;;10.40;;
3407;SDS011;1717;50.240;8.406;2024-01-07T10:39:01;14.35;;;11.38;;
3407;SDS011;1717;50.240;8.406;2024-01-07T10:41:28;14.63;;;11.45;;
3407;SDS011;1717;50.240;8.406;2024-01-07T10:43:57;16.25;;;12.15;;
3407;SDS011;1717;50.240;8.406;2024-01-07T10:46:25;13.18;;;10.85;;
3407;SDS011;1717;50.240;8.406;2024-01-07T10:48:59;17.10;;;13.00;;
3407;SDS011;1717;50.240;8.406;2024-01-07T10:51:34;16.80;;;13.10;;
3407;SDS011;1717;50.240;8.406;2024-01-07T10:54:01;18.42;;;13.20;;
3407;SDS011;1717;50.240;8.406;2024-01-07T10:56:35;18.57;;;13.57;;
3407;SDS011;1717;50.240;8.406;2024-01-07T10:59:09;19.67;;;13.80;;
3407;SDS011;1717;50.240;8.406;2024-01-07T11:01:36;17.48;;;12.63;;
3407;SDS011;1717;50.240;8.406;2024-01-07T11:04:06;16.40;;;13.50;;
3407;SDS011;1717;50.240;8.406;2024-01-07T11:06:49;17.30;;;13.60;;
3407;SDS011;1717;50.240;8.406;2024-01-07T11:09:23;16.67;;;12.73;;
3407;SDS011;1717;50.240;8.406;2024-01-07T11:11:58;15.27;;;12.43;;
3407;SDS011;1717;50.240;8.406;2024-01-07T11:14:37;18.80;;;12.90;;
3407;SDS011;1717;50.240;8.406;2024-01-07T11:17:05;14.13;;;10.90;;
3407;SDS011;1717;50.240;8.406;2024-01-07T11:19:32;14.30;;;11.20;;
3407;SDS011;1717;50.240;8.406;2024-01-07T11:24:52;14.27;;;10.40;;
3407;SDS011;1717;50.240;8.406;2024-01-07T11:27:21;14.83;;;9.77;;
3407;SDS011;1717;50.240;8.406;2024-01-07T11:29:55;14.00;;;9.87;;
3407;SDS011;1717;50.240;8.406;2024-01-07T11:32:23;12.83;;;11.37;;
3407;SDS011;1717;50.240;8.406;2024-01-07T11:34:55;12.33;;;10.07;;
3407;SDS011;1717;50.240;8.406;2024-01-07T11:37:24;14.67;;;9.30;;
3407;SDS011;1717;50.240;8.406;2024-01-07T11:39:54;11.77;;;9.40;;
3407;SDS011;1717;50.240;8.406;2024-01-07T11:42:22;10.50;;;8.27;;
3407;SDS011;1717;50.240;8.406;2024-01-07T11:44:51;11.40;;;8.37;;
3407;SDS011;1717;50.240;8.406;2024-01-07T11:47:22;9.63;;;7.67;;
3407;SDS011;1717;50.240;8.406;2024-01-07T11:49:51;11.40;;;9.87;;
3407;SDS011;1717;50.240;8.406;2024-01-07T11:52:18;12.00;;;8.50;;
3407;SDS011;1717;50.240;8.406;2024-01-07T11:54:46;14.67;;;9.83;;
3407;SDS011;1717;50.240;8.406;2024-01-07T11:57:14;15.23;;;9.40;;
3407;SDS011;1717;50.240;8.406;2024-01-07T11:59:41;13.03;;;10.50;;
3407;SDS011;1717;50.240;8.406;2024-01-07T12:02:08;15.97;;;11.63;;
3407;SDS011;1717;50.240;8.406;2024-01-07T12:04:36;11.80;;;9.43;;
3407;SDS011;1717;50.240;8.406;2024-01-07T12:07:04;10.97;;;9.03;;
3407;SDS011;1717;50.240;8.406;2024-01-07T12:09:31;13.73;;;9.30;;
3407;SDS011;1717;50.240;8.406;2024-01-07T12:11:58;14.70;;;9.43;;
3407;SDS011;1717;50.240;8.406;2024-01-07T12:14:28;14.10;;;9.20;;
3407;SDS011;1717;50.240;8.406;2024-01-07T12:16:57;14.07;;;10.33;;
3407;SDS011;1717;50.240;8.406;2024-01-07T12:19:25;13.53;;;9.97;;
3407;SDS011;1717;50.240;8.406;2024-01-07T12:22:01;14.83;;;11.00;;
3407;SDS011;1717;50.240;8.406;2024-01-07T12:24:29;16.07;;;9.73;;
3407;SDS011;1717;50.240;8.406;2024-01-07T12:26:56;12.83;;;9.07;;
3407;SDS011;1717;50.240;8.406;2024-01-07T12:29:29;17.97;;;10.40;;
3407;SDS011;1717;50.240;8.406;2024-01-07T12:31:56;10.47;;;9.40;;
3407;SDS011;1717;50.240;8.406;2024-01-07T12:34:23;10.90;;;9.23;;
3407;SDS011;1717;50.240;8.406;2024-01-07T12:36:50;14.27;;;9.60;;
3407;SDS011;1717;50.240;8.406;2024-01-07T12:39:20;16.30;;;10.17;;
3407;SDS011;1717;50.240;8.406;2024-01-07T12:41:47;13.67;;;9.40;;
3407;SDS011;1717;50.240;8.406;2024-01-07T12:44:14;11.27;;;9.83;;
3407;SDS011;1717;50.240;8.406;2024-01-07T12:46:42;10.77;;;9.17;;
3407;SDS011;1717;50.240;8.406;2024-01-07T12:49:10;10.93;;;7.90;;
3407;SDS011;1717;50.240;8.406;2024-01-07T12:51:36;10.80;;;8.33;;
3407;SDS011;1717;50.240;8.406;2024-01-07T12:54:03;9.93;;;7.40;;
3407;SDS011;1717;50.240;8.406;2024-01-07T12:56:38;12.47;;;8.73;;
3407;SDS011;1717;50.240;8.406;2024-01-07T12:59:05;10.73;;;7.33;;
3407;SDS011;1717;50.240;8.406;2024-01-07T13:01:31;10.33;;;8.10;;
3407;SDS011;1717;50.240;8.406;2024-01-07T13:04:00;9.60;;;7.47;;
3407;SDS011;1717;50.240;8.406;2024-01-07T13:06:27;11.13;;;7.80;;
3407;SDS011;1717;50.240;8.406;2024-01-07T13:08:54;11.27;;;8.60;;
3407;SDS011;1717;50.240;8.406;2024-01-07T13:11:21;11.70;;;7.80;;
3407;SDS011;1717;50.240;8.406;2024-01-07T13:13:49;12.83;;;8.50;;
3407;SDS011;1717;50.240;8.406;2024-01-07T13:16:16;9.93;;;8.40;;
3407;SDS011;1717;50.240;8.406;2024-01-07T13:18:44;12.33;;;9.43;;
3407;SDS011;1717;50.240;8.406;2024-01-07T13:21:11;10.90;;;7.80;;
3407;SDS011;1717;50.240;8.406;2024-01-07T13:23:38;10.23;;;7.73;;
3407;SDS011;1717;50.240;8.406;2024-01-07T13:26:07;9.30;;;8.33;;
3407;SDS011;1717;50.240;8.406;2024-01-07T13:28:35;10.90;;;8.37;;
3407;SDS011;1717;50.240;8.406;2024-01-07T13:31:03;14.30;;;8.30;;
3407;SDS011;1717;50.240;8.406;2024-01-07T13:33:31;12.40;;;8.00;;
3407;SDS011;1717;50.240;8.406;2024-01-07T13:35:59;9.80;;;7.17;;
3407;SDS011;1717;50.240;8.406;2024-01-07T13:38:28;11.40;;;8.70;;
3407;SDS011;1717;50.240;8.406;2024-01-07T13:40:56;16.10;;;9.30;;
3407;SDS011;1717;50.240;8.406;2024-01-07T13:43:22;10.63;;;8.57;;
3407;SDS011;1717;50.240;8.406;2024-01-07T13:45:50;11.00;;;8.00;;
3407;SDS011;1717;50.240;8.406;2024-01-07T13:48:19;11.87;;;8.80;;
3407;SDS011;1717;50.240;8.406;2024-01-07T13:50:45;8.83;;;7.43;;
3407;SDS011;1717;50.240;8.406;2024-01-07T13:53:14;12.10;;;8.17;;
3407;SDS011;1717;50.240;8.406;2024-01-07T13:55:40;13.20;;;8.27;;
3407;SDS011;1717;50.240;8.406;2024-01-07T13:58:07;11.23;;;8.00;;
3407;SDS011;1717;50.240;8.406;2024-01-07T14:00:34;11.50;;;7.90;;
3407;SDS011;1717;50.240;8.406;2024-01-07T14:03:01;14.20;;;7.47;;
3407;SDS011;1717;50.240;8.406;2024-01-07T14:05:29;11.40;;;7.23;;
3407;SDS011;1717;50.240;8.406;2024-01-07T14:07:57;10.50;;;7.30;;
3407;SDS011;1717;50.240;8.406;2024-01-07T14:10:23;8.73;;;7.10;;
3407;SDS011;1717;50.240;8.406;2024-01-07T14:12:50;14.03;;;9.23;;
3407;SDS011;1717;50.240;8.406;2024-01-07T14:15:17;9.97;;;6.73;;
3407;SDS011;1717;50.240;8.406;2024-01-07T14:17:44;9.03;;;6.33;;
3407;SDS011;1717;50.240;8.406;2024-01-07T14:20:11;7.17;;;6.00;;
3407;SDS011;1717;50.240;8.406;2024-01-07T14:22:39;9.27;;;6.17;;
3407;SDS011;1717;50.240;8.406;2024-01-07T14:25:07;11.17;;;5.87;;
3407;SDS011;1717;50.240;8.406;2024-01-07T14:27:34;7.37;;;5.40;;
3407;SDS011;1717;50.240;8.406;2024-01-07T14:30:01;7.00;;;5.97;;
3407;SDS011;1717;50.240;8.406;2024-01-07T14:32:28;7.23;;;5.20;;
3407;SDS011;1717;50.240;8.406;2024-01-07T14:34:54;7.87;;;5.93;;
3407;SDS011;1717;50.240;8.406;2024-01-07T14:37:21;6.63;;;5.50;;
3407;SDS011;1717;50.240;8.406;2024-01-07T14:39:50;5.50;;;4.40;;
3407;SDS011;1717;50.240;8.406;2024-01-07T14:42:16;6.07;;;4.90;;
3407;SDS011;1717;50.240;8.406;2024-01-07T14:44:43;8.90;;;5.63;;
3407;SDS011;1717;50.240;8.406;2024-01-07T14:47:10;8.73;;;5.13;;
3407;SDS011;1717;50.240;8.406;2024-01-07T14:49:39;5.17;;;4.43;;
3407;SDS011;1717;50.240;8.406;2024-01-07T14:52:05;5.30;;;4.80;;
3407;SDS011;1717;50.240;8.406;2024-01-07T14:54:32;5.90;;;4.53;;
3407;SDS011;1717;50.240;8.406;2024-01-07T14:57:02;4.40;;;3.80;;
3407;SDS011;1717;50.240;8.406;2024-01-07T14:59:29;4.90;;;4.27;;
3407;SDS011;1717;50.240;8.406;2024-01-07T15:01:56;7.00;;;4.27;;
3407;SDS011;1717;50.240;8.406;2024-01-07T15:04:24;5.63;;;4.17;;
3407;SDS011;1717;50.240;8.406;2024-01-07T15:06:50;5.40;;;4.20;;
3407;SDS011;1717;50.240;8.406;2024-01-07T15:09:17;4.97;;;4.47;;
3407;SDS011;1717;50.240;8.406;2024-01-07T15:11:46;3.90;;;3.27;;
3407;SDS011;1717;50.240;8.406;2024-01-07T15:14:15;5.37;;;3.97;;